Time;durP1;ratioP1;P1;durP2;ratioP2;P2;SDS_P1;SDS_P2;PMS_P1;PMS_P2;Temp;Humidity;BMP_temperature;BMP_pressure;BME280_temperature;BME280_humidity;BME280_pressure;Samples;Min_cycle;Max_cycle;Signal;HPM_P1;HPM_P2
2023/07/23 00:02:08;;;;;;;;;5.75;3.75;;;;;21.29;42.13;100558.13;5037850;28;57124;-69
2023/07/23 00:04:33;;;;;;;;;4.00;2.00;;;;;21.24;41.42;100556.66;5033029;28;67667;-69
2023/07/23 00:06:58;;;;;;;;;3.00;1.75;;;;;21.20;41.56;100547.19;5036955;28;46211;-69
2023/07/23 00:09:24;;;;;;;;;3.00;1.25;;;;;21.19;42.07;100549.97;5026489;28;45311;-69
2023/07/23 00:11:49;;;;;;;;;0.75;0.75;;;;;21.11;42.16;100542.56;5024712;28;45280;-69
2023/07/23 00:14:15;;;;;;;;;2.00;2.00;;;;;21.11;41.48;100544.41;5033588;28;45361;-68
2023/07/23 00:16:40;;;;;;;;;1.00;1.00;;;;;21.09;42.43;100535.66;5041812;28;46092;-69
2023/07/23 00:19:06;;;;;;;;;2.00;2.00;;;;;21.06;41.92;100542.06;5033097;28;63010;-69
2023/07/23 00:21:31;;;;;;;;;1.50;1.00;;;;;21.08;42.53;100544.63;5041542;28;45323;-69
2023/07/23 00:23:57;;;;;;;;;1.75;1.25;;;;;21.02;42.27;100545.91;5020228;28;45515;-69
2023/07/23 00:26:22;;;;;;;;;2.00;2.00;;;;;20.99;42.87;100532.84;5024583;28;60019;-69
2023/07/23 00:28:47;;;;;;;;;3.00;1.50;;;;;21.01;42.83;100547.72;5038094;28;45636;-69
2023/07/23 00:31:13;;;;;;;;;2.00;1.75;;;;;21.00;42.59;100537.19;5047050;28;63808;-68
2023/07/23 00:33:38;;;;;;;;;1.75;0.50;;;;;20.97;42.71;100532.09;5038358;28;45386;-68
2023/07/23 00:36:04;;;;;;;;;1.00;1.00;;;;;20.97;44.10;100535.59;5032771;28;45467;-69
2023/07/23 00:38:29;;;;;;;;;2.00;2.00;;;;;20.93;43.07;100525.28;5022951;28;46088;-67
2023/07/23 00:40:56;;;;;;;;;2.00;2.00;;;;;20.91;43.84;100536.06;5036817;28;45688;-68
2023/07/23 00:43:22;;;;;;;;;2.75;1.50;;;;;20.86;43.53;100527.59;5037293;28;45470;-68
2023/07/23 00:45:48;;;;;;;;;3.50;2.00;;;;;20.84;43.62;100533.00;5028815;28;45474;-68
2023/07/23 00:48:13;;;;;;;;;1.00;1.00;;;;;20.78;44.41;100522.81;5025189;28;58526;-69
2023/07/23 00:50:38;;;;;;;;;1.50;1.25;;;;;20.73;43.33;100516.97;5023817;28;46607;-69
2023/07/23 00:53:04;;;;;;;;;3.00;1.00;;;;;20.73;43.65;100514.31;5027435;28;69386;-68
2023/07/23 00:55:29;;;;;;;;;1.75;1.50;;;;;20.77;43.43;100522.91;5023488;28;47035;-68
2023/07/23 00:57:55;;;;;;;;;2.25;2.00;;;;;20.77;44.41;100518.47;5044101;28;55421;-68
2023/07/23 01:00:20;;;;;;;;;2.25;2.25;;;;;20.79;43.96;100521.84;5040769;28;46863;-69
2023/07/23 01:02:46;;;;;;;;;1.50;1.50;;;;;20.79;44.24;100513.03;5037657;28;68228;-69
2023/07/23 01:05:11;;;;;;;;;1.75;1.75;;;;;20.79;43.58;100508.56;5035096;28;47563;-68
2023/07/23 01:07:37;;;;;;;;;2.00;2.00;;;;;20.77;43.58;100501.63;5038972;28;62580;-69
2023/07/23 01:10:03;;;;;;;;;3.50;2.00;;;;;20.79;43.71;100507.72;5021476;28;60923;-69
2023/07/23 01:12:29;;;;;;;;;3.25;2.00;;;;;20.76;43.91;100508.78;5050636;28;45356;-68
2023/07/23 01:14:54;;;;;;;;;2.50;2.50;;;;;20.73;43.75;100501.00;5038341;28;56704;-68
2023/07/23 01:17:21;;;;;;;;;1.00;1.00;;;;;20.73;44.94;100506.34;5056724;28;45405;-68
2023/07/23 01:19:46;;;;;;;;;3.00;1.50;;;;;20.68;44.50;100500.50;5039641;28;45194;-69
2023/07/23 01:22:11;;;;;;;;;1.25;1.25;;;;;20.69;44.47;100494.22;5038962;28;56279;-69
2023/07/23 01:24:37;;;;;;;;;2.25;1.75;;;;;20.66;44.69;100481.16;5038376;28;66164;-69
2023/07/23 01:27:03;;;;;;;;;2.00;2.00;;;;;20.62;45.05;100480.53;5038227;28;45523;-69
2023/07/23 01:29:28;;;;;;;;;3.00;2.00;;;;;20.61;44.97;100483.28;5022600;28;45429;-69
2023/07/23 01:31:54;;;;;;;;;3.00;1.75;;;;;20.57;45.23;100471.16;5037554;28;45289;-69
2023/07/23 01:34:19;;;;;;;;;2.00;2.00;;;;;20.62;46.70;100471.72;5034167;28;46969;-69
2023/07/23 01:36:46;;;;;;;;;3.25;2.00;;;;;20.61;45.62;100469.97;5029871;28;69556;-69
2023/07/23 01:39:12;;;;;;;;;2.75;1.00;;;;;20.62;45.84;100466.41;5020792;28;67324;-69
2023/07/23 01:41:37;;;;;;;;;2.00;2.00;;;;;20.62;45.34;100469.06;5037029;28;45490;-69
2023/07/23 01:44:03;;;;;;;;;2.75;2.00;;;;;20.63;45.60;100460.97;5033885;28;59664;-69
2023/07/23 01:46:28;;;;;;;;;3.25;3.25;;;;;20.62;45.43;100456.59;5033802;28;45319;-69
2023/07/23 01:48:54;;;;;;;;;2.50;2.50;;;;;20.61;46.81;100440.72;5031904;28;66289;-69
2023/07/23 01:51:19;;;;;;;;;3.25;2.00;;;;;20.57;46.45;100447.25;5027212;28;49036;-69
2023/07/23 01:53:44;;;;;;;;;2.00;2.00;;;;;20.58;45.95;100451.63;5036987;28;64520;-69
2023/07/23 01:56:10;;;;;;;;;1.50;1.25;;;;;20.58;45.92;100452.44;5037620;28;55249;-69
2023/07/23 01:58:35;;;;;;;;;1.50;1.00;;;;;20.59;45.68;100453.28;5037924;28;45320;-69
2023/07/23 02:01:00;;;;;;;;;2.00;2.00;;;;;20.59;46.35;100447.97;5037050;28;69823;-69
2023/07/23 02:03:26;;;;;;;;;2.75;2.00;;;;;20.58;46.10;100443.63;5035512;28;68047;-69
2023/07/23 02:05:56;;;;;;;;;3.00;3.00;;;;;20.59;46.60;100455.94;5023801;28;52861;-69
2023/07/23 02:08:22;;;;;;;;;3.50;2.00;;;;;20.57;46.06;100441.94;5037052;28;45473;-69
2023/07/23 02:10:47;;;;;;;;;4.50;1.50;;;;;20.57;46.38;100452.56;5037223;28;45696;-69
2023/07/23 02:13:13;;;;;;;;;5.50;3.00;;;;;20.55;46.42;100451.84;5034393;28;67527;-69
2023/07/23 02:15:38;;;;;;;;;9.00;5.00;;;;;20.53;45.98;100448.44;5028281;28;45464;-69
2023/07/23 02:18:03;;;;;;;;;2.00;2.00;;;;;20.56;46.04;100449.06;5037202;28;45454;-69
2023/07/23 02:20:29;;;;;;;;;4.25;1.50;;;;;20.56;46.45;100462.34;5045116;28;61788;-69
2023/07/23 02:22:54;;;;;;;;;3.50;2.00;;;;;20.52;45.99;100452.03;5019145;28;47116;-69
2023/07/23 02:25:19;;;;;;;;;2.00;2.00;;;;;20.51;46.25;100447.72;5034813;28;68777;-69
2023/07/23 02:27:45;;;;;;;;;2.00;1.75;;;;;20.54;46.44;100453.66;5036387;28;59912;-69
2023/07/23 02:30:10;;;;;;;;;4.00;1.00;;;;;20.55;46.59;100455.31;5025264;28;61621;-69
2023/07/23 02:32:36;;;;;;;;;2.75;1.00;;;;;20.54;46.57;100450.13;5038265;28;46084;-68
2023/07/23 02:35:02;;;;;;;;;3.75;2.00;;;;;20.49;46.48;100438.03;5036256;28;63590;-69
2023/07/23 02:37:27;;;;;;;;;2.25;2.25;;;;;20.49;46.44;100440.69;5035022;28;45303;-69
2023/07/23 02:39:53;;;;;;;;;2.00;1.25;;;;;20.47;46.53;100434.63;5029593;28;71463;-69
2023/07/23 02:42:18;;;;;;;;;2.00;1.00;;;;;20.47;48.51;100434.63;5039169;28;45732;-69
2023/07/23 02:44:44;;;;;;;;;3.00;1.25;;;;;20.44;47.48;100432.19;5037992;28;45427;-69
2023/07/23 02:47:09;;;;;;;;;2.75;2.50;;;;;20.39;47.93;100433.50;5033086;28;45490;-69
2023/07/23 02:49:34;;;;;;;;;3.25;3.00;;;;;20.36;48.88;100434.59;5021103;28;45336;-69
2023/07/23 02:52:01;;;;;;;;;2.00;2.00;;;;;20.37;48.45;100438.09;5035545;28;71894;-68
2023/07/23 02:54:26;;;;;;;;;3.75;1.00;;;;;20.38;47.33;100430.00;5025154;28;45321;-69
2023/07/23 02:56:51;;;;;;;;;2.00;1.75;;;;;20.36;47.96;100436.38;5028021;28;45340;-67
2023/07/23 02:59:17;;;;;;;;;2.75;2.00;;;;;20.37;47.87;100438.91;5030379;28;66463;-68
2023/07/23 03:01:42;;;;;;;;;4.25;1.50;;;;;20.38;47.99;100440.63;5018238;28;58071;-68
2023/07/23 03:04:07;;;;;;;;;3.25;2.00;;;;;20.38;49.36;100439.75;5016634;28;63288;-68
2023/07/23 03:06:33;;;;;;;;;2.50;2.00;;;;;20.35;48.98;100430.22;5043745;28;45483;-68
2023/07/23 03:08:58;;;;;;;;;2.50;2.00;;;;;20.33;48.78;100432.13;5026015;28;60767;-69
2023/07/23 03:11:23;;;;;;;;;4.75;2.00;;;;;20.34;48.61;100427.66;5038689;28;48318;-68
2023/07/23 03:13:49;;;;;;;;;2.25;2.00;;;;;20.30;48.77;100417.25;5036415;28;61662;-68
2023/07/23 03:16:14;;;;;;;;;2.50;2.00;;;;;20.35;49.96;100435.53;5036857;28;69666;-70
2023/07/23 03:18:39;;;;;;;;;2.00;2.00;;;;;20.30;49.35;100425.22;5035943;28;45340;-69
2023/07/23 03:21:05;;;;;;;;;4.25;3.00;;;;;20.27;49.46;100416.63;5036980;28;66166;-68
2023/07/23 03:23:30;;;;;;;;;2.00;1.75;;;;;20.24;50.13;100422.19;5032806;28;71120;-69
2023/07/23 03:25:55;;;;;;;;;3.00;1.25;;;;;20.21;49.19;100428.56;5028512;28;45453;-69
2023/07/23 03:28:21;;;;;;;;;2.50;2.50;;;;;20.23;49.24;100421.31;5040768;28;61135;-69
2023/07/23 03:30:46;;;;;;;;;2.50;1.50;;;;;20.26;49.02;100420.25;5033718;28;54567;-69
2023/07/23 03:33:11;;;;;;;;;3.00;2.00;;;;;20.26;50.66;100422.91;5034012;28;53084;-70
2023/07/23 03:35:37;;;;;;;;;3.00;2.00;;;;;20.23;50.37;100425.78;5053589;28;64395;-70
2023/07/23 03:38:02;;;;;;;;;2.00;2.00;;;;;20.18;49.89;100422.63;5019428;28;53791;-69
2023/07/23 03:40:27;;;;;;;;;4.50;2.00;;;;;20.17;51.46;100426.22;5046987;28;62080;-68
2023/07/23 03:42:53;;;;;;;;;3.50;2.50;;;;;20.12;50.68;100418.59;5036205;28;71297;-68
2023/07/23 03:45:18;;;;;;;;;1.50;1.00;;;;;20.06;50.87;100411.94;5025011;28;64417;-68
2023/07/23 03:47:44;;;;;;;;;4.25;2.00;;;;;20.03;51.02;100403.34;5038432;28;45142;-68
2023/07/23 03:50:09;;;;;;;;;2.00;2.00;;;;;20.03;51.13;100403.34;5022090;28;47878;-69
2023/07/23 03:52:34;;;;;;;;;1.25;1.25;;;;;20.01;50.71;100398.13;5038102;28;53306;-69
2023/07/23 03:55:00;;;;;;;;;4.00;3.00;;;;;19.99;51.08;100399.19;5035969;28;45436;-69
2023/07/23 03:57:25;;;;;;;;;3.00;3.00;;;;;19.96;51.12;100391.44;5031603;28;45470;-68
2023/07/23 03:59:50;;;;;;;;;3.75;3.00;;;;;19.95;52.17;100397.72;5019258;28;66049;-69
2023/07/23 04:02:16;;;;;;;;;1.75;1.75;;;;;19.93;52.07;100389.84;5032988;28;45822;-68
2023/07/23 04:04:41;;;;;;;;;2.25;1.00;;;;;19.90;51.34;100380.31;5034162;28;45463;-69
2023/07/23 04:07:07;;;;;;;;;1.00;1.00;;;;;19.89;52.03;100378.59;5047306;28;45360;-68
2023/07/23 04:09:33;;;;;;;;;4.00;2.50;;;;;19.88;51.43;100376.91;5016967;28;47228;-68
2023/07/23 04:11:59;;;;;;;;;3.25;2.00;;;;;19.86;52.62;100377.97;5027497;28;45533;-68
2023/07/23 04:14:25;;;;;;;;;3.00;3.00;;;;;19.89;51.53;100383.06;5030751;28;45464;-69
2023/07/23 04:16:50;;;;;;;;;3.00;3.00;;;;;19.85;53.88;100374.47;5031784;28;45360;-69
2023/07/23 04:19:16;;;;;;;;;3.00;1.75;;;;;19.86;51.69;100377.97;5031745;28;63027;-69
2023/07/23 04:21:42;;;;;;;;;3.50;2.75;;;;;19.85;52.47;100370.97;5035486;28;62862;-69
2023/07/23 04:24:07;;;;;;;;;3.50;2.00;;;;;19.90;52.31;100380.31;5036776;28;45572;-69
2023/07/23 04:26:32;;;;;;;;;3.25;3.25;;;;;19.90;52.18;100379.44;5029050;28;66406;-69
2023/07/23 04:28:58;;;;;;;;;5.25;2.00;;;;;19.94;51.83;100372.09;5029852;28;54964;-68
2023/07/23 04:31:24;;;;;;;;;3.00;2.75;;;;;19.95;51.98;100365.84;5044742;28;45344;-69
2023/07/23 04:33:50;;;;;;;;;3.00;3.00;;;;;19.97;51.70;100364.75;5033950;28;45276;-69
2023/07/23 04:36:15;;;;;;;;;3.25;2.50;;;;;19.98;51.74;100363.81;5024799;28;45296;-69
2023/07/23 04:38:42;;;;;;;;;3.50;2.50;;;;;19.98;53.12;100363.81;5035785;28;45483;-68
2023/07/23 04:41:07;;;;;;;;;3.00;2.25;;;;;20.00;52.01;100371.66;5033674;28;45723;-69
2023/07/23 04:43:34;;;;;;;;;3.25;2.75;;;;;20.01;52.40;100376.88;5017151;28;45530;-69
2023/07/23 04:46:00;;;;;;;;;4.00;3.50;;;;;20.04;51.87;100375.78;5022768;28;45232;-67
2023/07/23 04:48:25;;;;;;;;;3.75;2.25;;;;;20.06;52.25;100373.88;5052375;28;57423;-68
2023/07/23 04:50:56;;;;;;;;;2.25;2.25;;;;;20.10;51.96;100370.06;5021610;28;45266;-68
2023/07/23 04:53:23;;;;;;;;;2.50;2.00;;;;;20.12;52.90;100380.56;5036322;28;45450;-68
2023/07/23 04:55:59;;;;;;;;;3.50;2.50;;;;;20.10;52.50;100373.53;5038059;28;45486;-68
2023/07/23 04:58:25;;;;;;;;;1.00;1.00;;;;;20.10;52.08;100378.00;5034026;28;45410;-68
2023/07/23 05:00:51;;;;;;;;;3.75;2.50;;;;;20.10;52.16;100372.72;5033682;28;46030;-68
2023/07/23 05:03:18;;;;;;;;;2.25;2.25;;;;;20.10;51.89;100370.06;5039604;28;45398;-69
2023/07/23 05:05:49;;;;;;;;;3.50;1.00;;;;;20.10;52.25;100364.75;5022389;28;45515;-68
2023/07/23 05:08:14;;;;;;;;;4.50;3.00;;;;;20.06;52.20;100374.75;5037102;28;45305;-68
2023/07/23 05:10:40;;;;;;;;;4.00;3.00;;;;;20.10;52.74;100375.38;5052221;28;45567;-69
2023/07/23 05:13:05;;;;;;;;;3.00;2.00;;;;;20.01;53.81;100368.03;5037744;28;54491;-68
2023/07/23 05:15:31;;;;;;;;;3.25;3.00;;;;;20.02;52.47;100367.94;5030194;28;71515;-68
2023/07/23 05:17:57;;;;;;;;;3.00;2.00;;;;;20.02;52.64;100361.78;5022411;28;46712;-67
2023/07/23 05:20:22;;;;;;;;;2.00;2.00;;;;;20.03;52.69;100363.50;5030717;28;45258;-68
2023/07/23 05:22:48;;;;;;;;;3.00;2.75;;;;;20.05;52.76;100357.09;5050488;28;55504;-68
2023/07/23 05:25:13;;;;;;;;;2.00;2.00;;;;;20.07;52.68;100355.16;5027961;28;45432;-68
2023/07/23 05:27:39;;;;;;;;;4.25;2.00;;;;;20.09;52.14;100357.72;5031403;28;71707;-68
2023/07/23 05:30:05;;;;;;;;;2.50;2.25;;;;;20.09;52.75;100347.09;5036538;28;62040;-68
2023/07/23 05:32:31;;;;;;;;;1.00;1.00;;;;;20.12;52.69;100346.03;5070984;28;45442;-68
2023/07/23 05:34:56;;;;;;;;;2.75;2.75;;;;;20.10;52.81;100344.31;5038730;28;45396;-68
2023/07/23 05:37:22;;;;;;;;;2.50;2.50;;;;;20.12;52.04;100352.19;5039382;28;71896;-68
2023/07/23 05:39:48;;;;;;;;;2.75;2.75;;;;;20.14;53.15;100352.06;5024870;28;45845;-68
2023/07/23 05:42:13;;;;;;;;;5.75;2.00;;;;;20.13;53.65;100361.00;5036310;28;46515;-69
2023/07/23 05:44:39;;;;;;;;;1.50;1.00;;;;;20.04;54.15;100351.88;5030977;28;45292;-69
2023/07/23 05:47:04;;;;;;;;;3.00;2.00;;;;;20.05;53.02;100357.09;5039047;28;68474;-73
2023/07/23 05:49:30;;;;;;;;;3.25;2.00;;;;;20.05;53.89;100345.63;5039461;28;45431;-68
2023/07/23 05:51:57;;;;;;;;;2.00;2.00;;;;;20.06;53.22;100348.16;5028219;28;59664;-68
2023/07/23 05:54:23;;;;;;;;;4.00;3.00;;;;;20.10;53.51;100354.09;5022349;28;45452;-68
2023/07/23 05:56:48;;;;;;;;;3.00;2.00;;;;;20.15;52.97;100354.63;5033978;28;46328;-68
2023/07/23 05:59:14;;;;;;;;;2.25;2.00;;;;;20.19;53.91;100365.88;5034257;28;63901;-68
2023/07/23 06:01:39;;;;;;;;;3.50;2.25;;;;;20.22;53.91;100358.53;5056827;28;62130;-68
2023/07/23 06:04:04;;;;;;;;;2.25;2.25;;;;;20.28;54.08;100362.53;5018797;28;45359;-68
2023/07/23 06:06:30;;;;;;;;;3.00;3.00;;;;;20.30;53.47;100361.44;5038443;28;55412;-69
2023/07/23 06:08:56;;;;;;;;;4.00;3.00;;;;;20.37;53.13;100364.50;5038150;28;55399;-69
2023/07/23 06:11:21;;;;;;;;;0.75;0.25;;;;;20.43;53.39;100361.41;5038390;28;45478;-68
2023/07/23 06:13:47;;;;;;;;;3.25;3.25;;;;;20.50;53.38;100369.75;5040508;28;45431;-68
2023/07/23 06:16:12;;;;;;;;;6.00;3.25;;;;;20.51;52.63;100360.81;5031791;28;45430;-69
2023/07/23 06:18:38;;;;;;;;;2.00;2.00;;;;;20.51;53.32;100360.81;5024379;28;45364;-69
2023/07/23 06:21:03;;;;;;;;;2.00;2.00;;;;;20.50;54.28;100361.78;5053471;28;45489;-70
2023/07/23 06:23:28;;;;;;;;;3.00;1.75;;;;;20.49;53.17;100355.63;5053585;28;45761;-69
2023/07/23 06:25:57;;;;;;;;;4.75;2.75;;;;;20.55;53.35;100366.75;5051771;28;45382;-68
2023/07/23 06:28:23;;;;;;;;;2.00;1.75;;;;;20.56;53.18;100374.63;5038190;28;45304;-69
2023/07/23 06:30:52;;;;;;;;;3.00;2.75;;;;;20.56;53.48;100374.63;5039052;28;45368;-69
2023/07/23 06:33:17;;;;;;;;;4.00;2.75;;;;;20.54;54.28;100362.38;5043707;28;45431;-69
2023/07/23 06:35:43;;;;;;;;;3.75;3.00;;;;;20.60;53.45;100372.59;5029714;28;72215;-69
2023/07/23 06:38:09;;;;;;;;;2.00;2.00;;;;;20.67;53.32;100389.81;5042311;28;45701;-69
2023/07/23 06:40:34;;;;;;;;;3.00;2.25;;;;;20.68;53.10;100380.84;5036372;28;65510;-69
2023/07/23 06:43:00;;;;;;;;;4.50;4.00;;;;;20.70;53.14;100380.72;5036633;28;45522;-69
2023/07/23 06:45:25;;;;;;;;;5.50;2.50;;;;;20.67;53.39;100381.81;5013276;28;47575;-69
2023/07/23 06:47:50;;;;;;;;;3.00;2.00;;;;;20.66;53.57;100377.47;5051544;28;68722;-69
2023/07/23 06:50:17;;;;;;;;;2.50;2.50;;;;;20.64;53.72;100376.72;5030465;28;57361;-68
2023/07/23 06:52:43;;;;;;;;;4.75;3.50;;;;;20.64;53.93;100388.22;5029588;28;45479;-69
2023/07/23 06:55:09;;;;;;;;;3.50;3.50;;;;;20.66;54.23;100383.66;5031598;28;45379;-69
2023/07/23 06:57:34;;;;;;;;;3.00;3.00;;;;;20.67;53.60;100365.88;5036317;28;45190;-69
2023/07/23 06:59:59;;;;;;;;;4.00;4.00;;;;;20.68;54.39;100359.56;5032657;28;45262;-68
2023/07/23 07:02:25;;;;;;;;;3.50;2.50;;;;;20.76;53.36;100380.28;5038893;28;45252;-69
2023/07/23 07:04:51;;;;;;;;;3.75;3.00;;;;;20.75;54.71;100381.25;5032746;28;58646;-69
2023/07/23 07:07:16;;;;;;;;;3.00;2.50;;;;;20.66;53.90;100359.72;5037945;28;45326;-69
2023/07/23 07:09:42;;;;;;;;;3.00;3.00;;;;;20.73;54.20;100383.16;5021349;28;45266;-69
2023/07/23 07:12:07;;;;;;;;;2.00;2.00;;;;;20.70;54.05;100375.41;5037792;28;50252;-69
2023/07/23 07:14:33;;;;;;;;;6.00;3.00;;;;;20.71;53.31;100372.66;5014192;28;47713;-69
2023/07/23 07:16:58;;;;;;;;;4.50;3.75;;;;;20.73;53.53;100368.06;5030256;28;45805;-69
2023/07/23 07:19:23;;;;;;;;;3.25;2.50;;;;;20.77;53.81;100366.00;5033184;28;57926;-69
2023/07/23 07:21:50;;;;;;;;;4.25;2.75;;;;;20.75;53.13;100363.50;5030876;28;59442;-69
2023/07/23 07:24:15;;;;;;;;;4.75;2.00;;;;;20.82;53.75;100367.38;5030516;28;45588;-68
2023/07/23 07:26:40;;;;;;;;;3.00;3.00;;;;;20.85;54.18;100367.13;5051862;28;75524;-68
2023/07/23 07:29:06;;;;;;;;;2.75;2.75;;;;;20.88;54.11;100358.09;5020480;28;45581;-68
2023/07/23 07:31:31;;;;;;;;;2.00;2.00;;;;;20.98;53.53;100367.06;5040813;28;45356;-69
2023/07/23 07:33:57;;;;;;;;;3.00;3.00;;;;;21.05;54.06;100373.59;5031068;28;70046;-69
2023/07/23 07:36:23;;;;;;;;;4.00;3.75;;;;;21.09;52.52;100374.22;5034646;28;45262;-69
2023/07/23 07:38:48;;;;;;;;;5.50;2.25;;;;;21.19;53.47;100366.34;5031815;28;65532;-68
2023/07/23 07:41:13;;;;;;;;;2.00;2.00;;;;;21.26;53.32;100366.72;5021947;28;45292;-69
2023/07/23 07:43:38;;;;;;;;;4.00;3.00;;;;;21.31;52.52;100367.22;5037348;28;68303;-68
2023/07/23 07:46:06;;;;;;;;;4.00;2.25;;;;;21.37;52.62;100374.72;5039119;28;68131;-69
2023/07/23 07:48:31;;;;;;;;;2.00;2.00;;;;;21.41;53.01;100377.03;5022055;28;45294;-69
2023/07/23 07:51:04;;;;;;;;;3.00;3.00;;;;;21.49;51.85;100371.13;5053968;28;45390;-68
2023/07/23 07:53:30;;;;;;;;;3.00;3.00;;;;;21.56;52.76;100376.81;5017779;28;46892;-68
2023/07/23 07:55:57;;;;;;;;;5.75;4.00;;;;;21.64;52.35;100379.72;5032084;28;45710;-68
2023/07/23 07:58:25;;;;;;;;;6.00;2.25;;;;;21.69;51.64;100390.00;5033889;28;45554;-68
2023/07/23 08:00:57;;;;;;;;;2.00;2.00;;;;;21.72;52.41;100381.78;5042591;28;45512;-69
2023/07/23 08:03:24;;;;;;;;;6.50;2.50;;;;;21.78;51.55;100384.81;5049412;28;48418;-68
2023/07/23 08:05:50;;;;;;;;;5.25;3.00;;;;;21.90;51.69;100377.66;5033993;28;45669;-69
2023/07/23 08:08:15;;;;;;;;;4.00;2.25;;;;;22.03;51.26;100388.16;5017598;28;45507;-69
2023/07/23 08:10:41;;;;;;;;;4.75;3.00;;;;;22.11;51.50;100379.53;5035546;28;45406;-69
2023/07/23 08:13:08;;;;;;;;;2.00;1.50;;;;;22.16;51.24;100386.19;5036607;28;46692;-69
2023/07/23 08:15:34;;;;;;;;;3.00;3.00;;;;;22.14;51.51;100377.47;5040738;28;45183;-69
2023/07/23 08:17:59;;;;;;;;;3.25;1.75;;;;;22.22;51.19;100384.81;5034376;28;68119;-69
2023/07/23 08:20:27;;;;;;;;;3.50;2.00;;;;;22.27;50.86;100385.34;5036716;28;45594;-68
2023/07/23 08:22:53;;;;;;;;;3.00;2.00;;;;;22.33;51.22;100376.00;5017354;28;47001;-68
2023/07/23 08:25:19;;;;;;;;;4.00;3.00;;;;;22.42;50.81;100374.41;5017232;28;45321;-68
2023/07/23 08:27:45;;;;;;;;;4.00;3.50;;;;;22.46;50.29;100382.00;5041551;28;45513;-69
2023/07/23 08:30:11;;;;;;;;;3.00;3.00;;;;;22.55;50.17;100380.41;5036959;28;45670;-70
2023/07/23 08:32:36;;;;;;;;;2.25;2.25;;;;;22.59;50.13;100381.81;5031394;28;47308;-67
2023/07/23 08:35:02;;;;;;;;;3.00;3.00;;;;;22.67;50.38;100381.22;5040677;28;65335;-76
2023/07/23 08:37:28;;;;;;;;;5.50;3.00;;;;;22.75;50.13;100384.06;5038043;28;45535;-73
2023/07/23 08:39:54;;;;;;;;;3.00;2.50;;;;;22.74;50.24;100380.56;5035765;28;45443;-67
2023/07/23 08:42:55;;;;;;;;;4.00;3.50;;;;;22.78;50.30;100377.63;5047810;28;46105;-67
2023/07/23 08:45:42;;;;;;;;;2.50;2.50;;;;;22.81;50.34;100372.88;5003952;28;45381;-67
2023/07/23 08:48:20;;;;;;;;;2.50;2.50;;;;;22.82;49.74;100382.56;5035840;28;45652;-67
2023/07/23 08:50:50;;;;;;;;;3.00;3.00;;;;;22.82;50.45;100387.06;5032187;28;45203;-68
2023/07/23 08:53:16;;;;;;;;;1.50;1.50;;;;;22.85;50.25;100384.97;5009236;28;47314;-68
2023/07/23 08:55:44;;;;;;;;;3.25;3.00;;;;;22.91;50.12;100384.47;5038150;28;45670;-69
2023/07/23 08:58:15;;;;;;;;;2.50;1.75;;;;;22.96;50.13;100384.06;5044163;28;45472;-68
2023/07/23 09:00:45;;;;;;;;;2.50;2.50;;;;;23.02;50.03;100390.69;5034471;28;45701;-70
2023/07/23 09:03:12;;;;;;;;;2.00;2.00;;;;;23.05;49.79;100385.16;5038983;28;45459;-68
2023/07/23 09:05:39;;;;;;;;;1.50;1.25;;;;;23.10;49.38;100380.25;5045060;28;45645;-68
2023/07/23 09:08:04;;;;;;;;;3.00;2.25;;;;;23.17;49.63;100380.59;5022442;28;46220;-68
2023/07/23 09:10:30;;;;;;;;;3.00;3.00;;;;;23.25;49.33;100388.81;5045352;28;45558;-68
2023/07/23 09:12:55;;;;;;;;;4.50;1.75;;;;;23.30;49.75;100391.88;5041381;28;45557;-68
2023/07/23 09:15:21;;;;;;;;;2.25;2.25;;;;;23.29;49.15;100391.06;5030422;28;71147;-71
2023/07/23 09:17:50;;;;;;;;;2.00;2.00;;;;;23.46;49.46;100381.59;5040865;28;52722;-68
2023/07/23 09:20:18;;;;;;;;;3.00;1.25;;;;;23.53;49.12;100379.22;5043495;28;45602;-68
2023/07/23 09:22:44;;;;;;;;;0.75;0.25;;;;;23.55;49.04;100389.75;5047688;28;45417;-68
2023/07/23 09:25:10;;;;;;;;;2.00;1.25;;;;;23.54;48.67;100380.06;5025520;28;45355;-68
2023/07/23 09:27:41;;;;;;;;;3.25;2.00;;;;;23.58;48.95;100386.84;5045518;28;45326;-69
2023/07/23 09:30:07;;;;;;;;;3.00;1.25;;;;;23.61;48.85;100383.91;5022294;28;45522;-69
2023/07/23 09:32:32;;;;;;;;;4.25;2.50;;;;;23.71;48.79;100387.47;5033157;28;47281;-70
2023/07/23 09:34:58;;;;;;;;;3.50;2.00;;;;;23.81;48.56;100385.69;5032452;28;59735;-68
2023/07/23 09:37:27;;;;;;;;;1.50;1.50;;;;;23.88;48.29;100399.34;5033486;28;45383;-68
2023/07/23 09:39:56;;;;;;;;;2.25;2.25;;;;;23.99;48.32;100393.91;5035050;28;45233;-68
2023/07/23 09:42:25;;;;;;;;;1.50;1.00;;;;;24.19;48.33;100391.28;5020492;28;47975;-68
2023/07/23 09:44:51;;;;;;;;;3.50;2.25;;;;;24.35;47.93;100393.41;5036343;28;45473;-69
2023/07/23 09:47:23;;;;;;;;;3.00;1.50;;;;;24.42;47.96;100397.22;5034236;28;45440;-68
2023/07/23 09:49:48;;;;;;;;;3.25;2.75;;;;;24.46;47.56;100398.63;5038403;28;45312;-68
2023/07/23 09:52:13;;;;;;;;;2.50;1.75;;;;;24.45;48.00;100403.13;5036478;28;72177;-68
2023/07/23 09:54:39;;;;;;;;;3.00;2.25;;;;;24.38;47.81;100410.03;5029453;28;60726;-68
2023/07/23 09:57:06;;;;;;;;;3.25;1.25;;;;;24.24;47.95;100405.06;5050005;28;65268;-66
2023/07/23 09:59:32;;;;;;;;;3.75;1.25;;;;;24.12;48.36;100417.72;5022678;28;45460;-67
2023/07/23 10:01:58;;;;;;;;;4.00;3.00;;;;;23.97;48.96;100416.41;5036807;28;70605;-66
2023/07/23 10:04:23;;;;;;;;;2.50;0.25;;;;;23.81;50.11;100425.75;5038916;28;53330;-67
2023/07/23 10:06:49;;;;;;;;;3.75;2.50;;;;;23.64;49.88;100421.03;5043640;28;66301;-66
2023/07/23 10:09:15;;;;;;;;;3.50;2.25;;;;;23.56;50.32;100423.53;5037932;28;45461;-67
2023/07/23 10:11:41;;;;;;;;;4.00;4.00;;;;;23.54;50.05;100425.50;5047608;28;45485;-67
2023/07/23 10:14:06;;;;;;;;;1.75;1.25;;;;;23.58;50.07;100426.91;5041708;28;47101;-67
2023/07/23 10:16:41;;;;;;;;;2.25;2.25;;;;;23.58;50.86;100424.22;5059350;28;62488;-67
2023/07/23 10:19:08;;;;;;;;;3.75;2.25;;;;;23.59;52.21;100426.78;5037332;28;45424;-67
2023/07/23 10:21:35;;;;;;;;;1.25;1.25;;;;;23.62;51.89;100431.00;5037367;28;65681;-67
2023/07/23 10:24:01;;;;;;;;;1.25;1.25;;;;;23.63;50.75;100435.38;5024652;28;45583;-67
2023/07/23 10:26:29;;;;;;;;;4.00;2.50;;;;;23.56;52.41;100435.03;5039485;28;45332;-67
2023/07/23 10:29:09;;;;;;;;;5.00;2.25;;;;;23.52;52.12;100430.97;5022428;28;45590;-67
2023/07/23 10:31:35;;;;;;;;;5.25;3.25;;;;;23.49;51.63;100441.91;5035918;28;46261;-67
2023/07/23 10:34:00;;;;;;;;;5.00;3.50;;;;;23.53;52.07;100431.78;5040712;28;45432;-67
2023/07/23 10:36:26;;;;;;;;;7.50;3.00;;;;;23.52;52.41;100433.63;5024892;28;67264;-67
2023/07/23 10:39:17;;;;;;;;;4.75;4.50;;;;;23.50;52.71;100438.25;5023150;28;66865;-67
2023/07/23 10:41:53;;;;;;;;;4.75;4.00;;;;;23.43;52.76;100445.94;5039013;28;45465;-67
2023/07/23 10:44:20;;;;;;;;;3.75;2.25;;;;;23.34;54.34;100445.88;5021729;28;45471;-67
2023/07/23 10:46:46;;;;;;;;;6.25;4.50;;;;;23.25;53.10;100444.88;5039968;28;45456;-68
2023/07/23 10:49:22;;;;;;;;;3.00;1.75;;;;;23.18;54.90;100449.00;5035202;28;72230;-67
2023/07/23 10:51:50;;;;;;;;;3.25;3.25;;;;;23.10;54.73;100447.00;5041758;28;45377;-67
2023/07/23 10:54:16;;;;;;;;;4.75;4.50;;;;;22.97;53.94;100436.47;5031554;28;45751;-66
2023/07/23 10:56:43;;;;;;;;;5.00;3.00;;;;;22.94;55.44;100453.59;5045140;28;45489;-68
2023/07/23 10:59:12;;;;;;;;;2.50;1.50;;;;;22.78;56.56;100449.66;5021853;28;45797;-73
2023/07/23 11:01:41;;;;;;;;;4.00;3.75;;;;;22.61;57.44;100451.06;5039922;28;47336;-66
2023/07/23 11:04:16;;;;;;;;;4.00;4.00;;;;;22.49;56.37;100461.75;5021676;28;45892;-68
2023/07/23 11:07:02;;;;;;;;;3.50;3.50;;;;;22.25;56.82;100451.22;5036274;28;45505;-66
2023/07/23 11:09:30;;;;;;;;;6.25;4.00;;;;;22.10;61.33;100452.47;5058613;27;45548;-67
2023/07/23 11:11:56;;;;;;;;;7.00;4.00;;;;;21.97;60.66;100442.81;5034799;28;45421;-67
2023/07/23 11:14:24;;;;;;;;;3.75;3.00;;;;;21.94;62.13;100448.38;5032802;28;45732;-73
2023/07/23 11:16:54;;;;;;;;;6.00;3.25;;;;;21.94;60.79;100451.03;5036973;28;45325;-68
2023/07/23 11:19:20;;;;;;;;;7.25;5.25;;;;;21.96;60.64;100450.91;5021790;28;45670;-69
2023/07/23 11:21:49;;;;;;;;;8.75;5.25;;;;;22.02;59.64;100445.06;5019450;28;47334;-71